Time;durP1;ratioP1;P1;durP2;ratioP2;P2;SDS_P1;SDS_P2;PMS_P1;PMS_P2;Temp;Humidity;BMP_temperature;BMP_pressure;BME280_temperature;BME280_humidity;BME280_pressure;Samples;Min_cycle;Max_cycle;Signal;HPM_P1;HPM_P2
2023/05/06 00:00:13;;;;;;;14.05;8.30;;;12.30;99.90;;;;;;4985060;28;20046;-77
2023/05/06 00:02:39;;;;;;;15.13;9.20;;;12.30;99.90;;;;;;4969706;28;20553;-77
2023/05/06 00:05:05;;;;;;;11.15;8.52;;;12.30;99.90;;;;;;4986331;28;20538;-78
2023/05/06 00:07:31;;;;;;;14.70;9.20;;;12.30;99.90;;;;;;5002081;28;20047;-77
2023/05/06 00:09:57;;;;;;;14.75;9.20;;;12.30;99.90;;;;;;4986204;28;20065;-77
2023/05/06 00:12:22;;;;;;;12.95;9.40;;;12.30;99.90;;;;;;4991285;28;20041;-76
2023/05/06 00:14:48;;;;;;;13.85;9.13;;;12.40;99.90;;;;;;4991256;28;20042;-77
2023/05/06 00:17:14;;;;;;;14.93;9.40;;;12.30;99.90;;;;;;5003750;28;20050;-77
2023/05/06 00:19:40;;;;;;;13.73;9.02;;;12.30;99.90;;;;;;5003325;28;20061;-78
2023/05/06 00:22:05;;;;;;;15.63;9.50;;;12.20;99.90;;;;;;5004804;28;20070;-77
2023/05/06 00:24:31;;;;;;;14.90;9.15;;;12.30;99.90;;;;;;5005705;28;20041;-77
2023/05/06 00:26:57;;;;;;;12.45;9.13;;;12.30;99.90;;;;;;5003554;28;20123;-77
2023/05/06 00:29:23;;;;;;;13.23;8.20;;;12.20;99.90;;;;;;4988683;28;20042;-78
2023/05/06 00:31:48;;;;;;;11.82;8.20;;;12.20;99.90;;;;;;5004391;28;20140;-77
2023/05/06 00:34:14;;;;;;;12.52;7.88;;;12.20;99.90;;;;;;5004508;28;20042;-78
2023/05/06 00:36:41;;;;;;;12.85;8.13;;;12.30;99.90;;;;;;5003213;28;20054;-78
2023/05/06 00:39:07;;;;;;;12.52;7.80;;;12.10;99.90;;;;;;5003444;28;20050;-78
2023/05/06 00:41:33;;;;;;;12.15;7.40;;;12.10;99.90;;;;;;4983606;28;20046;-79
2023/05/06 00:43:58;;;;;;;10.88;7.68;;;12.10;99.90;;;;;;4968745;28;20085;-77
2023/05/06 00:46:24;;;;;;;12.20;6.85;;;12.10;99.90;;;;;;4994491;28;20050;-77
2023/05/06 00:48:51;;;;;;;12.25;7.60;;;12.00;99.90;;;;;;5003822;28;20282;-77
2023/05/06 00:51:17;;;;;;;10.90;7.80;;;12.00;99.90;;;;;;5003589;28;20046;-77
2023/05/06 00:53:45;;;;;;;12.15;8.48;;;11.90;99.90;;;;;;4987268;28;20049;-77
2023/05/06 00:56:11;;;;;;;11.43;8.05;;;11.90;99.90;;;;;;4999851;28;20185;-78
2023/05/06 00:58:37;;;;;;;12.50;8.18;;;11.90;99.90;;;;;;4968710;28;20125;-78
2023/05/06 01:01:03;;;;;;;11.68;7.55;;;11.90;99.90;;;;;;4968058;28;20483;-78
2023/05/06 01:03:30;;;;;;;13.32;8.02;;;11.90;99.90;;;;;;4985416;28;20074;-78
2023/05/06 01:06:11;;;;;;;11.10;8.25;;;11.90;99.90;;;;;;4993718;28;20045;-78
2023/05/06 01:08:45;;;;;;;15.45;9.13;;;11.90;99.90;;;;;;4987275;28;20060;-78
2023/05/06 01:11:18;;;;;;;12.80;8.30;;;11.90;99.90;;;;;;5003851;28;20054;-78
2023/05/06 01:13:55;;;;;;;10.85;7.90;;;11.90;99.90;;;;;;5003033;28;20045;-78
2023/05/06 01:16:24;;;;;;;12.63;8.10;;;11.90;99.90;;;;;;4988470;28;20533;-77
2023/05/06 01:18:52;;;;;;;10.05;7.20;;;11.90;99.90;;;;;;4990546;28;20601;-78
2023/05/06 01:21:18;;;;;;;11.80;7.25;;;11.90;99.90;;;;;;5006129;28;20050;-78
2023/05/06 01:23:51;;;;;;;10.65;7.18;;;11.90;99.90;;;;;;5007958;28;20458;-79
2023/05/06 01:26:17;;;;;;;11.50;7.38;;;11.90;99.90;;;;;;5008078;28;20667;-78
2023/05/06 01:28:42;;;;;;;11.85;8.13;;;11.90;99.90;;;;;;4991253;28;20046;-79
2023/05/06 01:31:13;;;;;;;12.25;8.45;;;11.90;99.90;;;;;;4992303;28;20054;-78
2023/05/06 01:33:58;;;;;;;13.23;8.70;;;11.90;99.90;;;;;;4994394;28;20041;-78
2023/05/06 01:36:33;;;;;;;13.23;8.50;;;11.90;99.90;;;;;;4988738;28;20046;-78
2023/05/06 01:39:17;;;;;;;13.52;9.38;;;11.90;99.90;;;;;;4988358;28;20050;-78
2023/05/06 01:41:46;;;;;;;11.93;7.88;;;11.90;99.90;;;;;;5001725;28;20053;-80
2023/05/06 01:44:13;;;;;;;12.82;8.20;;;12.00;99.90;;;;;;4989411;28;20096;-78
2023/05/06 01:46:39;;;;;;;11.15;8.07;;;12.00;99.90;;;;;;5003139;28;20041;-78
2023/05/06 01:49:10;;;;;;;11.52;8.50;;;12.20;99.90;;;;;;4970366;28;20078;-79
2023/05/06 01:51:36;;;;;;;11.32;7.88;;;12.00;99.90;;;;;;5006443;28;20049;-78
2023/05/06 01:54:03;;;;;;;13.40;8.60;;;11.90;99.90;;;;;;5007085;28;20045;-78
2023/05/06 01:56:31;;;;;;;12.50;8.80;;;11.90;99.90;;;;;;5006709;28;20793;-79
2023/05/06 01:58:58;;;;;;;13.07;8.43;;;11.90;99.90;;;;;;4991243;28;20049;-79
2023/05/06 02:01:24;;;;;;;14.63;8.50;;;11.90;99.90;;;;;;5007124;28;20054;-79
2023/05/06 02:03:50;;;;;;;13.18;8.23;;;11.90;99.90;;;;;;5006100;28;20526;-79
2023/05/06 02:06:16;;;;;;;13.40;8.55;;;11.90;99.90;;;;;;5005639;28;20058;-78
2023/05/06 02:08:41;;;;;;;12.63;8.07;;;11.90;99.90;;;;;;4976718;28;20046;-78
2023/05/06 02:11:07;;;;;;;16.33;8.35;;;11.80;99.90;;;;;;4971630;28;20488;-78
2023/05/06 02:13:33;;;;;;;13.52;7.93;;;11.80;99.90;;;;;;5009247;28;20041;-79
2023/05/06 02:15:59;;;;;;;14.05;8.80;;;11.90;99.90;;;;;;5008892;28;20092;-78
2023/05/06 02:18:24;;;;;;;11.30;7.78;;;11.80;99.90;;;;;;5007207;28;20054;-72
2023/05/06 02:20:50;;;;;;;12.07;8.80;;;11.80;99.90;;;;;;5003508;28;20038;-74
2023/05/06 02:23:16;;;;;;;16.33;10.10;;;11.70;99.90;;;;;;5006951;28;20099;-72
2023/05/06 02:25:42;;;;;;;14.73;10.02;;;11.80;99.90;;;;;;5007536;28;20422;-72
2023/05/06 02:28:08;;;;;;;15.38;8.40;;;11.70;99.90;;;;;;4995185;28;20042;-73
2023/05/06 02:30:34;;;;;;;14.00;9.27;;;11.70;99.90;;;;;;4988139;28;20152;-73
2023/05/06 02:32:59;;;;;;;13.30;8.77;;;11.80;99.90;;;;;;5003078;28;20124;-73
2023/05/06 02:35:25;;;;;;;14.85;9.18;;;11.80;99.90;;;;;;5006124;28;20132;-73
2023/05/06 02:37:51;;;;;;;15.25;10.32;;;11.70;99.90;;;;;;5005001;28;20485;-73
2023/05/06 02:40:17;;;;;;;12.77;9.90;;;11.80;99.90;;;;;;4989100;28;20050;-74
2023/05/06 02:42:43;;;;;;;13.07;8.93;;;11.80;99.90;;;;;;5004817;28;20530;-73
2023/05/06 02:45:09;;;;;;;15.82;9.68;;;11.70;99.90;;;;;;5007318;28;20419;-74
2023/05/06 02:47:34;;;;;;;13.48;9.75;;;11.70;99.90;;;;;;5006836;28;20042;-73
2023/05/06 02:50:00;;;;;;;13.98;9.15;;;11.70;99.90;;;;;;5001224;28;20136;-73
2023/05/06 02:52:26;;;;;;;13.82;9.13;;;11.70;99.90;;;;;;4985878;28;20100;-73
2023/05/06 02:54:52;;;;;;;12.68;9.25;;;11.70;99.90;;;;;;5003344;28;20049;-73
2023/05/06 02:57:18;;;;;;;14.95;9.60;;;11.70;99.90;;;;;;5004830;28;20049;-74
2023/05/06 02:59:43;;;;;;;13.65;9.27;;;11.70;99.90;;;;;;4989139;28;20042;-73
2023/05/06 03:02:09;;;;;;;14.07;8.48;;;11.60;99.90;;;;;;5006716;28;20894;-74
2023/05/06 03:04:35;;;;;;;15.23;8.32;;;11.60;99.90;;;;;;4998490;28;20484;-73
2023/05/06 03:07:01;;;;;;;13.15;8.60;;;11.60;99.90;;;;;;5002852;28;20499;-73
2023/05/06 03:09:26;;;;;;;11.95;8.52;;;11.60;99.90;;;;;;4987144;28;20042;-73
2023/05/06 03:11:52;;;;;;;13.52;8.38;;;11.60;99.90;;;;;;4986071;28;20050;-73
2023/05/06 03:14:18;;;;;;;10.60;7.60;;;11.60;99.90;;;;;;4986276;28;20042;-73
2023/05/06 03:16:43;;;;;;;11.05;6.97;;;11.60;99.90;;;;;;4987360;28;20039;-73
2023/05/06 03:19:09;;;;;;;12.27;7.38;;;11.50;99.90;;;;;;4999542;28;20121;-73
2023/05/06 03:21:34;;;;;;;10.23;6.97;;;11.50;99.90;;;;;;5001570;28;20041;-73
2023/05/06 03:24:00;;;;;;;9.73;6.82;;;11.50;99.90;;;;;;5005458;28;20038;-73
2023/05/06 03:26:26;;;;;;;13.38;7.60;;;11.40;99.90;;;;;;5004609;28;20053;-74
2023/05/06 03:28:52;;;;;;;10.40;7.70;;;11.40;99.90;;;;;;5004934;28;20046;-73
2023/05/06 03:31:17;;;;;;;12.20;8.43;;;11.40;99.90;;;;;;5006232;28;20052;-73
2023/05/06 03:33:43;;;;;;;12.55;8.30;;;11.30;99.90;;;;;;5004815;28;20053;-73
2023/05/06 03:36:09;;;;;;;12.15;8.48;;;11.30;99.90;;;;;;4985846;28;20065;-74
2023/05/06 03:38:34;;;;;;;11.68;8.25;;;11.40;99.90;;;;;;4981043;28;20054;-73
2023/05/06 03:41:00;;;;;;;12.45;8.68;;;11.30;99.90;;;;;;5006519;28;20042;-73
2023/05/06 03:43:26;;;;;;;14.23;9.48;;;11.20;99.90;;;;;;5002975;28;20053;-74
2023/05/06 03:45:51;;;;;;;15.30;9.32;;;11.20;99.90;;;;;;5006626;28;20379;-74
2023/05/06 03:48:17;;;;;;;13.07;9.27;;;11.20;99.90;;;;;;4987695;28;20121;-73
2023/05/06 03:50:43;;;;;;;13.93;9.18;;;11.20;99.90;;;;;;4971333;28;20045;-73
2023/05/06 03:53:09;;;;;;;12.68;8.40;;;11.20;99.90;;;;;;5005499;28;20045;-74
2023/05/06 03:55:34;;;;;;;13.98;8.43;;;11.20;99.90;;;;;;5006149;28;20092;-73
2023/05/06 03:58:02;;;;;;;12.68;8.30;;;11.20;99.90;;;;;;5005275;28;20383;-73
2023/05/06 04:00:28;;;;;;;12.32;8.30;;;11.10;99.90;;;;;;5007621;28;20073;-73
2023/05/06 04:02:53;;;;;;;11.95;7.80;;;11.10;99.90;;;;;;5005623;28;20491;-74
2023/05/06 04:05:19;;;;;;;10.57;7.15;;;11.00;99.90;;;;;;5004338;28;20062;-73
2023/05/06 04:07:45;;;;;;;9.05;6.32;;;10.90;99.90;;;;;;4986956;28;20057;-73
2023/05/06 04:10:11;;;;;;;9.75;6.60;;;10.90;99.90;;;;;;5004985;28;20038;-73
2023/05/06 04:12:36;;;;;;;9.93;6.07;;;10.90;99.90;;;;;;5004873;28;20041;-73
2023/05/06 04:15:02;;;;;;;9.52;5.60;;;10.80;99.90;;;;;;5004917;28;20042;-73
2023/05/06 04:17:28;;;;;;;8.70;5.78;;;10.80;99.90;;;;;;4985935;28;20103;-72
2023/05/06 04:19:54;;;;;;;8.18;4.93;;;10.80;99.90;;;;;;5003898;28;20560;-73
2023/05/06 04:22:20;;;;;;;7.80;5.13;;;10.70;99.90;;;;;;5003942;28;20054;-73
2023/05/06 04:24:45;;;;;;;7.78;4.65;;;10.70;99.90;;;;;;5003408;28;20132;-73
2023/05/06 04:27:11;;;;;;;6.95;4.50;;;10.80;99.90;;;;;;5004608;28;20415;-74
2023/05/06 04:29:37;;;;;;;10.20;5.07;;;10.70;99.90;;;;;;5004676;28;20042;-79
2023/05/06 04:32:03;;;;;;;7.00;4.60;;;10.70;99.90;;;;;;5004198;28;20046;-79
2023/05/06 04:34:29;;;;;;;7.68;5.00;;;10.70;99.90;;;;;;4991379;28;20046;-79
2023/05/06 04:36:57;;;;;;;8.95;5.45;;;10.70;99.90;;;;;;5000439;28;20046;-79
2023/05/06 04:39:23;;;;;;;9.70;5.88;;;10.70;99.90;;;;;;5003043;28;20125;-79
2023/05/06 04:41:49;;;;;;;8.57;5.32;;;10.70;99.90;;;;;;5004691;28;20415;-80
2023/05/06 04:44:15;;;;;;;7.85;4.82;;;10.70;99.90;;;;;;5005758;28;20052;-79
2023/05/06 04:46:41;;;;;;;7.93;4.80;;;10.70;99.90;;;;;;5006092;28;20133;-80
2023/05/06 04:49:08;;;;;;;7.90;5.03;;;10.70;99.90;;;;;;4973955;28;20100;-79
2023/05/06 04:51:33;;;;;;;9.68;5.45;;;10.70;99.90;;;;;;4987417;28;20058;-79
2023/05/06 04:53:59;;;;;;;10.90;6.90;;;10.70;99.90;;;;;;4971735;28;20050;-79
2023/05/06 04:56:25;;;;;;;10.55;6.70;;;10.90;99.90;;;;;;4988118;28;20057;-80
2023/05/06 04:58:50;;;;;;;10.25;6.18;;;10.80;99.90;;;;;;5002160;28;20045;-79
2023/05/06 05:01:18;;;;;;;9.60;6.78;;;10.80;99.90;;;;;;5006241;28;20096;-79
2023/05/06 05:03:44;;;;;;;11.93;7.40;;;10.90;99.90;;;;;;5007125;28;20135;-79
2023/05/06 05:06:12;;;;;;;12.40;7.88;;;10.90;99.90;;;;;;5007041;28;20082;-79
2023/05/06 05:08:38;;;;;;;14.45;8.40;;;10.90;99.90;;;;;;4991351;28;20167;-80
2023/05/06 05:11:05;;;;;;;12.55;7.57;;;10.90;99.90;;;;;;5008551;28;20042;-79
2023/05/06 05:13:31;;;;;;;12.93;8.43;;;11.00;99.90;;;;;;5000317;28;20069;-80
2023/05/06 05:15:56;;;;;;;12.63;8.07;;;11.00;99.90;;;;;;4995217;28;20043;-79
2023/05/06 05:18:23;;;;;;;15.43;10.25;;;11.10;99.90;;;;;;4983994;28;20056;-79
2023/05/06 05:20:48;;;;;;;13.98;8.90;;;11.10;99.90;;;;;;4993192;28;20054;-79
2023/05/06 05:23:14;;;;;;;15.18;9.85;;;11.10;99.90;;;;;;4991950;28;20049;-79
2023/05/06 05:25:40;;;;;;;18.75;11.65;;;11.10;99.90;;;;;;5007662;28;20048;-79
2023/05/06 05:28:06;;;;;;;17.25;11.43;;;11.20;99.90;;;;;;5001959;28;20414;-79
2023/05/06 05:30:31;;;;;;;18.27;12.35;;;11.20;99.90;;;;;;5004080;28;20419;-79
2023/05/06 05:32:57;;;;;;;18.02;11.95;;;11.20;99.90;;;;;;5005531;28;20046;-79
2023/05/06 05:35:23;;;;;;;17.15;11.65;;;11.20;99.90;;;;;;5007320;28;20054;-79
2023/05/06 05:37:48;;;;;;;19.40;12.20;;;11.30;99.90;;;;;;5007872;28;20085;-79
2023/05/06 05:40:14;;;;;;;17.70;11.52;;;11.20;99.90;;;;;;5009002;28;20061;-80
2023/05/06 05:42:40;;;;;;;20.58;13.75;;;11.30;99.90;;;;;;5006885;28;20054;-81
2023/05/06 05:45:06;;;;;;;19.20;13.35;;;11.30;99.90;;;;;;5009277;28;20116;-81
2023/05/06 05:47:32;;;;;;;18.92;13.10;;;11.40;99.90;;;;;;5009591;28;20046;-81
2023/05/06 05:49:58;;;;;;;21.27;14.15;;;11.40;99.90;;;;;;5008547;28;20048;-81
2023/05/06 05:52:23;;;;;;;20.40;13.13;;;11.40;99.90;;;;;;5008129;28;20072;-81
2023/05/06 05:54:49;;;;;;;20.73;13.82;;;11.40;99.90;;;;;;4993555;28;20138;-81
2023/05/06 05:57:15;;;;;;;20.85;13.38;;;11.40;99.90;;;;;;4971377;28;20519;-81
2023/05/06 05:59:40;;;;;;;20.30;13.38;;;11.40;99.90;;;;;;5001976;28;20057;-80
2023/05/06 06:02:06;;;;;;;18.67;12.85;;;11.50;99.90;;;;;;4988529;28;20130;-80
2023/05/06 06:04:32;;;;;;;20.63;13.75;;;11.50;99.90;;;;;;5003844;28;20050;-80
2023/05/06 06:06:58;;;;;;;20.27;13.50;;;11.50;99.90;;;;;;5004800;28;20558;-80
2023/05/06 06:09:23;;;;;;;18.98;12.45;;;11.50;99.90;;;;;;5007957;28;20128;-81
2023/05/06 06:11:49;;;;;;;19.25;13.23;;;11.50;99.90;;;;;;5007429;28;20049;-80
2023/05/06 06:14:15;;;;;;;21.23;13.20;;;11.50;99.90;;;;;;5002627;28;20085;-81
2023/05/06 06:16:40;;;;;;;22.98;13.35;;;11.50;99.90;;;;;;5006639;28;20112;-80
2023/05/06 06:19:06;;;;;;;19.52;12.57;;;11.60;99.90;;;;;;5007395;28;20048;-81
2023/05/06 06:21:32;;;;;;;20.15;12.07;;;11.60;99.90;;;;;;5007192;28;20045;-80
2023/05/06 06:23:58;;;;;;;18.08;11.80;;;11.60;99.90;;;;;;5004538;28;20417;-80
2023/05/06 06:26:23;;;;;;;20.63;12.18;;;11.60;99.90;;;;;;5007674;28;20423;-81
2023/05/06 06:28:49;;;;;;;19.05;11.95;;;11.60;99.90;;;;;;5007791;28;20048;-81
2023/05/06 06:31:15;;;;;;;20.92;12.88;;;11.60;99.90;;;;;;5005115;28;20049;-81
2023/05/06 06:33:40;;;;;;;19.35;12.43;;;11.60;99.90;;;;;;5004341;28;20049;-80
2023/05/06 06:36:07;;;;;;;19.30;12.38;;;11.60;99.90;;;;;;4988768;28;20038;-80
2023/05/06 06:38:32;;;;;;;22.65;12.13;;;11.60;99.90;;;;;;5005067;28;20103;-80
2023/05/06 06:40:58;;;;;;;20.83;13.10;;;11.60;99.90;;;;;;5005002;28;20042;-81
2023/05/06 06:43:24;;;;;;;20.25;12.65;;;11.70;99.90;;;;;;5005968;28;20113;-80
2023/05/06 06:45:49;;;;;;;19.23;12.98;;;11.70;99.90;;;;;;5006897;28;20081;-81
2023/05/06 06:48:16;;;;;;;19.42;12.20;;;11.70;99.90;;;;;;5006063;28;20085;-80
2023/05/06 06:50:42;;;;;;;23.38;14.30;;;11.90;99.90;;;;;;5007879;28;20046;-80
2023/05/06 06:53:08;;;;;;;24.40;14.63;;;11.70;99.90;;;;;;5006024;28;20045;-80
2023/05/06 06:55:35;;;;;;;24.52;15.35;;;11.70;99.90;;;;;;4998836;28;20046;-80
2023/05/06 06:58:01;;;;;;;20.98;14.13;;;11.80;99.90;;;;;;4989783;28;20161;-80
2023/05/06 07:00:26;;;;;;;23.70;15.60;;;11.80;99.90;;;;;;5006576;28;20654;-80
2023/05/06 07:02:52;;;;;;;23.42;14.50;;;11.80;99.90;;;;;;5007778;28;20076;-80
2023/05/06 07:05:18;;;;;;;26.02;15.25;;;11.80;99.90;;;;;;5002792;28;20842;-80
2023/05/06 07:07:44;;;;;;;25.92;15.32;;;11.90;99.90;;;;;;4995747;28;20046;-81
2023/05/06 07:10:10;;;;;;;22.85;14.35;;;11.90;99.90;;;;;;5001532;28;20046;-81
2023/05/06 07:12:36;;;;;;;24.85;15.55;;;11.90;99.90;;;;;;5000468;28;20077;-80
2023/05/06 07:15:05;;;;;;;24.65;15.57;;;12.00;99.90;;;;;;5002101;28;20115;-81
2023/05/06 07:17:32;;;;;;;25.48;16.55;;;11.90;99.90;;;;;;4995331;28;20119;-80
2023/05/06 07:19:58;;;;;;;26.33;16.38;;;12.00;99.90;;;;;;5005636;28;20112;-80
2023/05/06 07:22:24;;;;;;;25.25;16.38;;;12.00;99.90;;;;;;5005925;28;20118;-80
2023/05/06 07:24:49;;;;;;;27.20;17.05;;;12.10;99.90;;;;;;5006478;28;20169;-80
2023/05/06 07:27:15;;;;;;;25.42;16.30;;;12.10;99.90;;;;;;5006671;28;20054;-80
2023/05/06 07:29:41;;;;;;;25.73;16.17;;;12.10;99.90;;;;;;5007241;28;20657;-80
2023/05/06 07:32:06;;;;;;;25.02;15.77;;;12.20;99.90;;;;;;5007133;28;20045;-80
2023/05/06 07:34:33;;;;;;;25.48;15.98;;;12.20;99.90;;;;;;5006144;28;20131;-80
2023/05/06 07:37:00;;;;;;;23.17;16.17;;;12.20;99.90;;;;;;5000331;28;20053;-80
2023/05/06 07:39:25;;;;;;;25.48;16.13;;;12.20;99.90;;;;;;5006427;28;20053;-80
2023/05/06 07:41:51;;;;;;;27.52;17.08;;;12.30;99.90;;;;;;5006901;28;20052;-81
2023/05/06 07:44:17;;;;;;;27.33;17.25;;;12.30;99.90;;;;;;5006336;28;20168;-81
2023/05/06 07:46:43;;;;;;;26.80;17.15;;;12.40;99.90;;;;;;5004178;28;20133;-80
2023/05/06 07:49:09;;;;;;;25.10;15.73;;;12.40;99.90;;;;;;4985599;28;20057;-81
2023/05/06 07:51:34;;;;;;;27.70;17.17;;;12.50;99.90;;;;;;5004086;28;20052;-80
2023/05/06 07:54:00;;;;;;;25.73;17.20;;;12.60;99.90;;;;;;4996910;28;20525;-80
2023/05/06 07:56:26;;;;;;;25.60;16.98;;;12.60;99.90;;;;;;5001544;28;20046;-79
2023/05/06 07:58:51;;;;;;;25.63;16.05;;;12.80;99.90;;;;;;4987753;28;20053;-79
2023/05/06 08:01:17;;;;;;;23.50;16.48;;;12.90;99.90;;;;;;5001936;28;20046;-78
2023/05/06 08:03:43;;;;;;;23.38;15.77;;;13.10;99.90;;;;;;4991994;28;20058;-78
2023/05/06 08:06:08;;;;;;;24.08;14.93;;;13.30;99.90;;;;;;4997084;28;20042;-78
2023/05/06 08:08:34;;;;;;;22.40;14.50;;;13.40;99.90;;;;;;5005350;28;20042;-77
2023/05/06 08:11:00;;;;;;;17.83;12.10;;;13.50;99.90;;;;;;5003931;28;20095;-77
2023/05/06 08:13:26;;;;;;;16.48;10.70;;;13.70;99.90;;;;;;5005008;28;20522;-76
2023/05/06 08:15:53;;;;;;;15.95;10.57;;;13.90;99.90;;;;;;5000661;28;20049;-75
2023/05/06 08:18:19;;;;;;;16.13;10.23;;;14.00;99.90;;;;;;5001781;28;20062;-77
2023/05/06 08:20:44;;;;;;;13.50;9.20;;;14.10;99.90;;;;;;4995038;28;20585;-77
2023/05/06 08:23:10;;;;;;;15.02;9.00;;;14.30;99.90;;;;;;4993244;28;20049;-77
2023/05/06 08:25:36;;;;;;;13.48;8.80;;;14.40;99.90;;;;;;4996898;28;20072;-76
2023/05/06 08:28:02;;;;;;;13.98;8.50;;;14.50;99.90;;;;;;4997963;28;20045;-76
2023/05/06 08:30:27;;;;;;;13.35;8.55;;;14.70;99.90;;;;;;4998550;28;20586;-76
2023/05/06 08:32:53;;;;;;;13.90;8.38;;;14.80;99.90;;;;;;4997443;28;20045;-76
2023/05/06 08:35:19;;;;;;;12.90;8.20;;;14.80;99.90;;;;;;5000981;28;20525;-75
2023/05/06 08:37:44;;;;;;;11.68;7.60;;;15.00;99.90;;;;;;4999443;28;20120;-76
2023/05/06 08:40:18;;;;;;;12.15;8.20;;;15.10;99.90;;;;;;5005529;28;20124;-76
2023/05/06 08:42:48;;;;;;;13.65;8.23;;;15.20;99.90;;;;;;5005328;28;20045;-76
2023/05/06 08:45:18;;;;;;;13.10;9.07;;;15.20;99.90;;;;;;4997012;28;20088;-74
2023/05/06 08:47:45;;;;;;;13.20;9.45;;;15.40;99.90;;;;;;4999902;28;20406;-75
2023/05/06 08:50:11;;;;;;;13.52;9.40;;;15.40;99.90;;;;;;4996917;28;20046;-74
2023/05/06 08:52:38;;;;;;;14.68;9.43;;;15.50;99.90;;;;;;5004056;28;20250;-75
2023/05/06 08:55:05;;;;;;;14.75;10.43;;;15.60;99.90;;;;;;5002064;28;20105;-74
2023/05/06 08:57:32;;;;;;;14.68;9.57;;;15.70;99.90;;;;;;4982969;28;20050;-75
2023/05/06 08:59:58;;;;;;;12.75;9.55;;;15.70;99.90;;;;;;4997084;28;20034;-74
2023/05/06 09:02:24;;;;;;;13.55;9.95;;;15.80;99.90;;;;;;4986152;28;20057;-73
2023/05/06 09:04:52;;;;;;;14.27;10.77;;;15.90;99.90;;;;;;5004405;28;20065;-73
2023/05/06 09:07:23;;;;;;;14.30;9.30;;;16.00;99.90;;;;;;4997478;28;20060;-74
2023/05/06 09:09:49;;;;;;;13.65;9.73;;;16.10;99.90;;;;;;5001883;28;20041;-73
2023/05/06 09:12:15;;;;;;;11.70;8.80;;;16.20;99.90;;;;;;4994604;28;20081;-74
2023/05/06 09:14:42;;;;;;;13.10;9.10;;;16.20;99.90;;;;;;5000939;28;20084;-73
2023/05/06 09:17:25;;;;;;;13.13;9.55;;;16.30;99.90;;;;;;4993699;28;20084;-73
2023/05/06 09:19:58;;;;;;;10.85;7.82;;;16.40;99.90;;;;;;4997453;28;20042;-72
2023/05/06 09:22:26;;;;;;;13.00;8.40;;;16.40;99.90;;;;;;5001528;28;20038;-72
2023/05/06 09:24:55;;;;;;;11.55;7.93;;;16.50;99.90;;;;;;5001376;28;20046;-73
2023/05/06 09:27:25;;;;;;;10.48;7.97;;;16.60;99.90;;;;;;4999155;28;20053;-73
2023/05/06 09:30:12;;;;;;;9.98;7.85;;;16.70;99.90;;;;;;5006305;28;20041;-73
2023/05/06 09:32:38;;;;;;;10.60;7.35;;;16.80;99.90;;;;;;4999058;28;20053;-72
2023/05/06 09:35:05;;;;;;;11.20;6.93;;;16.90;99.90;;;;;;5002817;28;20591;-73
2023/05/06 09:37:30;;;;;;;10.57;7.10;;;17.00;99.90;;;;;;5001313;28;20785;-74
2023/05/06 09:39:59;;;;;;;11.93;7.70;;;17.10;99.90;;;;;;5001172;28;20041;-72
2023/05/06 09:42:27;;;;;;;10.88;6.97;;;17.10;99.90;;;;;;4980709;28;20050;-74
2023/05/06 09:44:55;;;;;;;11.70;7.38;;;17.20;99.90;;;;;;5004299;28;20053;-72
2023/05/06 09:47:26;;;;;;;11.85;7.65;;;17.20;99.90;;;;;;4998447;28;20045;-73
2023/05/06 09:50:00;;;;;;;10.80;7.68;;;17.20;99.90;;;;;;5000459;28;20048;-73
2023/05/06 09:52:27;;;;;;;12.23;8.30;;;17.20;99.90;;;;;;4999455;28;20076;-72
2023/05/06 09:54:53;;;;;;;10.25;6.57;;;17.30;99.90;;;;;;4979375;28;20049;-72
2023/05/06 09:57:20;;;;;;;10.65;6.50;;;17.30;99.90;;;;;;5002648;28;20081;-73
2023/05/06 09:59:47;;;;;;;11.82;7.55;;;17.40;99.90;;;;;;4999172;28;20132;-72
2023/05/06 10:02:13;;;;;;;11.52;6.10;;;17.50;99.90;;;;;;4991672;28;20382;-73
2023/05/06 10:04:40;;;;;;;12.02;7.20;;;17.50;99.90;;;;;;4995182;28;20115;-73
2023/05/06 10:07:11;;;;;;;10.40;5.82;;;17.50;99.90;;;;;;4991026;28;20054;-73
2023/05/06 10:09:39;;;;;;;11.23;6.50;;;17.60;99.90;;;;;;5008988;28;20096;-72
2023/05/06 10:12:09;;;;;;;10.20;5.85;;;17.60;99.90;;;;;;4999558;28;20054;-73
2023/05/06 10:14:38;;;;;;;10.68;6.10;;;17.60;99.90;;;;;;4994249;28;20042;-72
2023/05/06 10:17:08;;;;;;;9.48;6.40;;;17.60;99.90;;;;;;4997304;28;20046;-73
2023/05/06 10:19:41;;;;;;;8.77;5.57;;;17.60;99.90;;;;;;5002156;28;20038;-73
2023/05/06 10:22:39;;;;;;;9.63;5.47;;;17.60;99.90;;;;;;4999984;28;20042;-73
2023/05/06 10:25:20;;;;;;;11.23;5.57;;;17.70;99.90;;;;;;4997170;28;20080;-73
2023/05/06 10:27:47;;;;;;;13.05;5.90;;;17.70;99.90;;;;;;4999645;28;20089;-72
2023/05/06 10:30:15;;;;;;;10.15;6.07;;;17.80;99.90;;;;;;4998997;28;20096;-73
2023/05/06 10:32:42;;;;;;;10.57;5.63;;;17.90;99.90;;;;;;4997296;28;20050;-73
2023/05/06 10:35:18;;;;;;;9.65;4.88;;;17.90;99.90;;;;;;5000598;28;20041;-73
2023/05/06 10:37:46;;;;;;;13.32;6.80;;;18.00;99.90;;;;;;5003880;28;20038;-72
2023/05/06 10:40:12;;;;;;;12.25;7.30;;;18.10;99.90;;;;;;5003756;28;20038;-73
2023/05/06 10:42:38;;;;;;;9.90;6.38;;;18.10;99.90;;;;;;5002258;28;20113;-73
2023/05/06 10:45:05;;;;;;;9.80;6.30;;;18.10;99.90;;;;;;5001335;28;20835;-73
2023/05/06 10:47:54;;;;;;;11.30;6.82;;;18.20;99.90;;;;;;5003401;28;20049;-73
2023/05/06 10:50:24;;;;;;;10.80;6.40;;;18.20;99.90;;;;;;4999837;28;20062;-75
2023/05/06 10:52:55;;;;;;;11.63;6.30;;;18.20;99.90;;;;;;4998548;28;20046;-75
2023/05/06 10:55:31;;;;;;;;;;;18.20;99.90;;;;;;5018975;28;20125;-75
2023/05/06 10:58:09;;;;;;;11.02;6.00;;;18.10;99.90;;;;;;4993525;28;19925;-75
2023/05/06 11:00:35;;;;;;;12.00;6.57;;;18.10;99.90;;;;;;5000313;28;20117;-75
2023/05/06 11:03:22;;;;;;;12.40;6.90;;;18.00;99.90;;;;;;4989374;28;20458;-76
2023/05/06 11:05:50;;;;;;;12.63;7.32;;;17.90;99.90;;;;;;4999225;28;20061;-75
2023/05/06 11:08:24;;;;;;;11.85;6.53;;;17.90;99.90;;;;;;5002516;28;20104;-76
2023/05/06 11:10:53;;;;;;;12.18;6.40;;;17.80;99.90;;;;;;4995051;28;20039;-76
2023/05/06 11:13:27;;;;;;;11.85;6.63;;;17.80;99.90;;;;;;4994715;28;20510;-76
2023/05/06 11:15:55;;;;;;;12.18;7.05;;;17.80;99.90;;;;;;4996268;28;20046;-73
2023/05/06 11:18:23;;;;;;;12.65;6.00;;;17.80;99.90;;;;;;4997563;28;20041;-73
2023/05/06 11:21:01;;;;;;;12.93;6.85;;;17.80;99.90;;;;;;4992955;28;20056;-74
2023/05/06 11:23:48;;;;;;;12.98;8.25;;;17.70;99.90;;;;;;4978015;28;20778;-73
2023/05/06 11:26:14;;;;;;;12.48;8.60;;;17.70;99.90;;;;;;5000274;28;20050;-73
2023/05/06 11:28:45;;;;;;;13.55;8.13;;;17.70;99.90;;;;;;4996557;28;20861;-77
2023/05/06 11:31:12;;;;;;;13.82;9.27;;;17.60;99.90;;;;;;4996065;28;20380;-74
2023/05/06 11:33:53;;;;;;;14.63;8.63;;;17.60;99.90;;;;;;4993086;28;20115;-74
2023/05/06 11:36:20;;;;;;;25.85;11.43;;;17.60;99.90;;;;;;4993772;28;20061;-74
2023/05/06 11:38:55;;;;;;;20.08;11.05;;;17.50;99.90;;;;;;4997933;28;20279;-74
2023/05/06 11:41:25;;;;;;;21.58;12.02;;;17.40;99.90;;;;;;4994304;28;20103;-75
2023/05/06 11:43:52;;;;;;;21.55;11.18;;;17.30;99.90;;;;;;5008858;28;20133;-78
2023/05/06 11:46:19;;;;;;;18.90;7.72;;;17.20;99.90;;;;;;5010474;28;20050;-75
2023/05/06 11:48:49;;;;;;;19.58;5.25;;;17.00;99.90;;;;;;4998350;28;20052;-78
2023/05/06 11:51:20;;;;;;;22.40;4.53;;;16.70;99.90;;;;;;5001866;28;20049;-80
2023/05/06 11:53:46;;;;;;;9.70;3.42;;;16.50;99.90;;;;;;4999028;28;20743;-77
2023/05/06 11:56:13;;;;;;;13.50;4.30;;;16.40;99.90;;;;;;5000302;28;20046;-77
2023/05/06 11:58:38;;;;;;;13.07;4.13;;;16.20;99.90;;;;;;4996814;28;20392;-77
2023/05/06 12:01:04;;;;;;;11.70;3.45;;;16.10;99.90;;;;;;4996512;28;20053;-77
2023/05/06 12:03:31;;;;;;;7.10;2.88;;;16.00;99.90;;;;;;4997991;28;20487;-78
2023/05/06 12:05:58;;;;;;;8.95;2.42;;;15.70;99.90;;;;;;4996154;28;20136;-78
2023/05/06 12:08:31;;;;;;;7.40;2.05;;;15.80;99.90;;;;;;4997115;28;20046;-74
2023/05/06 12:11:06;;;;;;;6.65;1.70;;;15.80;99.90;;;;;;4994571;28;20050;-75
2023/05/06 12:13:37;;;;;;;5.22;1.80;;;15.70;99.90;;;;;;4989740;28;20050;-76
2023/05/06 12:16:07;;;;;;;7.90;1.30;;;15.70;99.90;;;;;;4992647;28;20092;-76
2023/05/06 12:18:33;;;;;;;4.53;1.20;;;15.70;99.90;;;;;;4993396;28;20509;-75
2023/05/06 12:21:06;;;;;;;2.63;1.17;;;15.60;99.90;;;;;;4999790;28;20073;-76
2023/05/06 12:23:32;;;;;;;4.10;1.42;;;15.50;99.90;;;;;;4997510;28;20478;-76
2023/05/06 12:26:03;;;;;;;4.15;1.30;;;15.50;99.90;;;;;;4998082;28;20049;-76
2023/05/06 12:28:30;;;;;;;5.30;1.60;;;15.50;99.90;;;;;;4997090;28;20049;-76
2023/05/06 12:30:56;;;;;;;8.02;1.60;;;15.50;99.90;;;;;;4994745;28;20073;-75
2023/05/06 12:33:22;;;;;;;3.00;1.30;;;15.50;99.90;;;;;;4995733;28;20422;-75
2023/05/06 12:35:50;;;;;;;7.47;1.50;;;15.60;99.90;;;;;;4991635;28;20046;-75